sensor_id;sensor_type;location;lat;lon;timestamp;P1;durP1;ratioP1;P2;durP2;ratioP2
32152;SDS011;18656;50.580;11.392;2024-03-06T00:00:21;154.05;;;68.40;;
32152;SDS011;18656;50.580;11.392;2024-03-06T00:02:49;137.02;;;63.50;;
32152;SDS011;18656;50.580;11.392;2024-03-06T00:05:16;143.80;;;64.82;;
32152;SDS011;18656;50.580;11.392;2024-03-06T00:07:43;136.80;;;65.80;;
32152;SDS011;18656;50.580;11.392;2024-03-06T00:10:11;136.38;;;64.72;;
32152;SDS011;18656;50.580;11.392;2024-03-06T00:12:38;134.80;;;64.32;;
32152;SDS011;18656;50.580;11.392;2024-03-06T00:15:06;140.20;;;66.05;;
32152;SDS011;18656;50.580;11.392;2024-03-06T00:17:34;135.77;;;63.70;;
32152;SDS011;18656;50.580;11.392;2024-03-06T00:20:02;134.88;;;63.78;;
32152;SDS011;18656;50.580;11.392;2024-03-06T00:22:31;134.73;;;63.75;;
32152;SDS011;18656;50.580;11.392;2024-03-06T00:24:59;132.82;;;63.00;;
32152;SDS011;18656;50.580;11.392;2024-03-06T00:27:26;139.60;;;66.25;;
32152;SDS011;18656;50.580;11.392;2024-03-06T00:29:54;122.10;;;60.95;;
32152;SDS011;18656;50.580;11.392;2024-03-06T00:32:21;132.80;;;62.95;;
32152;SDS011;18656;50.580;11.392;2024-03-06T00:34:50;134.38;;;65.13;;
32152;SDS011;18656;50.580;11.392;2024-03-06T00:37:17;133.07;;;63.40;;
32152;SDS011;18656;50.580;11.392;2024-03-06T00:39:45;128.52;;;63.28;;
32152;SDS011;18656;50.580;11.392;2024-03-06T00:42:13;132.82;;;63.00;;
32152;SDS011;18656;50.580;11.392;2024-03-06T00:44:41;133.57;;;63.13;;
32152;SDS011;18656;50.580;11.392;2024-03-06T00:47:08;124.78;;;61.70;;
32152;SDS011;18656;50.580;11.392;2024-03-06T00:49:36;129.30;;;63.70;;
32152;SDS011;18656;50.580;11.392;2024-03-06T00:52:05;126.05;;;60.67;;
32152;SDS011;18656;50.580;11.392;2024-03-06T00:54:32;136.07;;;62.35;;
32152;SDS011;18656;50.580;11.392;2024-03-06T00:57:00;126.47;;;61.00;;
32152;SDS011;18656;50.580;11.392;2024-03-06T00:59:27;131.10;;;63.47;;
32152;SDS011;18656;50.580;11.392;2024-03-06T01:01:55;140.88;;;65.55;;
32152;SDS011;18656;50.580;11.392;2024-03-06T01:04:23;133.70;;;63.58;;
32152;SDS011;18656;50.580;11.392;2024-03-06T01:06:50;132.63;;;61.72;;
32152;SDS011;18656;50.580;11.392;2024-03-06T01:09:18;143.35;;;63.45;;
32152;SDS011;18656;50.580;11.392;2024-03-06T01:11:45;139.88;;;63.92;;
32152;SDS011;18656;50.580;11.392;2024-03-06T01:14:16;137.45;;;63.25;;
32152;SDS011;18656;50.580;11.392;2024-03-06T01:16:43;137.70;;;65.40;;
32152;SDS011;18656;50.580;11.392;2024-03-06T01:19:11;137.20;;;63.88;;
32152;SDS011;18656;50.580;11.392;2024-03-06T01:21:38;144.15;;;64.95;;
32152;SDS011;18656;50.580;11.392;2024-03-06T01:24:05;131.05;;;63.38;;
32152;SDS011;18656;50.580;11.392;2024-03-06T01:26:33;138.60;;;65.53;;
32152;SDS011;18656;50.580;11.392;2024-03-06T01:29:01;134.13;;;61.20;;
32152;SDS011;18656;50.580;11.392;2024-03-06T01:31:28;130.23;;;62.97;;
32152;SDS011;18656;50.580;11.392;2024-03-06T01:33:55;142.48;;;63.60;;
32152;SDS011;18656;50.580;11.392;2024-03-06T01:36:23;129.52;;;62.83;;
32152;SDS011;18656;50.580;11.392;2024-03-06T01:38:51;132.48;;;61.63;;
32152;SDS011;18656;50.580;11.392;2024-03-06T01:41:18;135.85;;;63.53;;
32152;SDS011;18656;50.580;11.392;2024-03-06T01:43:46;143.48;;;66.55;;
32152;SDS011;18656;50.580;11.392;2024-03-06T01:46:13;138.35;;;62.33;;
32152;SDS011;18656;50.580;11.392;2024-03-06T01:48:41;140.15;;;63.83;;
32152;SDS011;18656;50.580;11.392;2024-03-06T01:51:09;146.82;;;65.80;;
32152;SDS011;18656;50.580;11.392;2024-03-06T01:53:37;130.77;;;61.20;;
32152;SDS011;18656;50.580;11.392;2024-03-06T01:56:04;136.52;;;64.57;;
32152;SDS011;18656;50.580;11.392;2024-03-06T01:58:32;131.25;;;60.80;;
32152;SDS011;18656;50.580;11.392;2024-03-06T02:01:00;139.73;;;64.38;;
32152;SDS011;18656;50.580;11.392;2024-03-06T02:03:28;129.43;;;63.00;;
32152;SDS011;18656;50.580;11.392;2024-03-06T02:05:56;137.23;;;65.05;;
32152;SDS011;18656;50.580;11.392;2024-03-06T02:08:25;123.90;;;59.45;;
32152;SDS011;18656;50.580;11.392;2024-03-06T02:10:52;132.00;;;61.90;;
32152;SDS011;18656;50.580;11.392;2024-03-06T02:13:20;130.88;;;60.42;;
32152;SDS011;18656;50.580;11.392;2024-03-06T02:15:48;121.53;;;59.47;;
32152;SDS011;18656;50.580;11.392;2024-03-06T02:18:15;136.48;;;61.67;;
32152;SDS011;18656;50.580;11.392;2024-03-06T02:20:43;127.05;;;60.80;;
32152;SDS011;18656;50.580;11.392;2024-03-06T02:23:12;132.60;;;62.38;;
32152;SDS011;18656;50.580;11.392;2024-03-06T02:25:41;135.23;;;59.90;;
32152;SDS011;18656;50.580;11.392;2024-03-06T02:28:08;128.98;;;59.92;;
32152;SDS011;18656;50.580;11.392;2024-03-06T02:30:35;135.90;;;62.38;;
32152;SDS011;18656;50.580;11.392;2024-03-06T02:33:03;145.30;;;64.43;;
32152;SDS011;18656;50.580;11.392;2024-03-06T02:35:33;131.07;;;63.58;;
32152;SDS011;18656;50.580;11.392;2024-03-06T02:38:03;133.35;;;62.75;;
32152;SDS011;18656;50.580;11.392;2024-03-06T02:40:33;138.63;;;64.70;;
32152;SDS011;18656;50.580;11.392;2024-03-06T02:43:01;139.73;;;64.70;;
32152;SDS011;18656;50.580;11.392;2024-03-06T02:45:28;150.00;;;66.45;;
32152;SDS011;18656;50.580;11.392;2024-03-06T02:47:56;150.18;;;67.22;;
32152;SDS011;18656;50.580;11.392;2024-03-06T02:50:24;148.50;;;67.05;;
32152;SDS011;18656;50.580;11.392;2024-03-06T02:52:51;143.77;;;64.95;;
32152;SDS011;18656;50.580;11.392;2024-03-06T02:55:21;121.35;;;59.22;;
32152;SDS011;18656;50.580;11.392;2024-03-06T02:57:48;144.15;;;65.03;;
32152;SDS011;18656;50.580;11.392;2024-03-06T03:00:16;146.02;;;64.90;;
32152;SDS011;18656;50.580;11.392;2024-03-06T03:02:44;135.40;;;62.85;;
32152;SDS011;18656;50.580;11.392;2024-03-06T03:05:11;130.45;;;62.33;;
32152;SDS011;18656;50.580;11.392;2024-03-06T03:07:39;143.27;;;63.67;;
32152;SDS011;18656;50.580;11.392;2024-03-06T03:10:06;128.60;;;60.40;;
32152;SDS011;18656;50.580;11.392;2024-03-06T03:12:34;129.13;;;61.15;;
32152;SDS011;18656;50.580;11.392;2024-03-06T03:15:01;123.20;;;60.13;;
32152;SDS011;18656;50.580;11.392;2024-03-06T03:17:29;125.00;;;61.40;;
32152;SDS011;18656;50.580;11.392;2024-03-06T03:19:56;140.20;;;64.93;;
32152;SDS011;18656;50.580;11.392;2024-03-06T03:22:23;120.35;;;58.42;;
32152;SDS011;18656;50.580;11.392;2024-03-06T03:24:51;123.97;;;61.33;;
32152;SDS011;18656;50.580;11.392;2024-03-06T03:27:18;118.13;;;59.10;;
32152;SDS011;18656;50.580;11.392;2024-03-06T03:29:46;123.88;;;59.25;;
32152;SDS011;18656;50.580;11.392;2024-03-06T03:32:13;109.28;;;56.42;;
32152;SDS011;18656;50.580;11.392;2024-03-06T03:34:43;114.43;;;58.35;;
32152;SDS011;18656;50.580;11.392;2024-03-06T03:37:12;122.60;;;59.67;;
32152;SDS011;18656;50.580;11.392;2024-03-06T03:39:39;112.22;;;54.95;;
32152;SDS011;18656;50.580;11.392;2024-03-06T03:42:08;122.28;;;58.42;;
32152;SDS011;18656;50.580;11.392;2024-03-06T03:44:35;122.15;;;58.50;;
32152;SDS011;18656;50.580;11.392;2024-03-06T03:47:03;118.43;;;57.35;;
32152;SDS011;18656;50.580;11.392;2024-03-06T03:49:31;118.53;;;58.28;;
32152;SDS011;18656;50.580;11.392;2024-03-06T03:51:58;112.38;;;56.50;;
32152;SDS011;18656;50.580;11.392;2024-03-06T03:54:26;119.80;;;58.10;;
32152;SDS011;18656;50.580;11.392;2024-03-06T03:56:53;122.68;;;56.85;;
32152;SDS011;18656;50.580;11.392;2024-03-06T03:59:21;115.20;;;55.97;;
32152;SDS011;18656;50.580;11.392;2024-03-06T04:01:48;124.50;;;60.58;;
32152;SDS011;18656;50.580;11.392;2024-03-06T04:04:16;126.80;;;58.88;;
32152;SDS011;18656;50.580;11.392;2024-03-06T04:06:44;124.35;;;56.67;;
32152;SDS011;18656;50.580;11.392;2024-03-06T04:09:12;119.20;;;58.47;;
32152;SDS011;18656;50.580;11.392;2024-03-06T04:11:41;118.65;;;58.15;;
32152;SDS011;18656;50.580;11.392;2024-03-06T04:14:08;117.80;;;59.40;;
32152;SDS011;18656;50.580;11.392;2024-03-06T04:16:37;111.80;;;55.83;;
32152;SDS011;18656;50.580;11.392;2024-03-06T04:19:04;112.80;;;55.92;;
32152;SDS011;18656;50.580;11.392;2024-03-06T04:21:32;114.38;;;57.63;;
32152;SDS011;18656;50.580;11.392;2024-03-06T04:23:59;109.70;;;54.60;;
32152;SDS011;18656;50.580;11.392;2024-03-06T04:26:27;111.90;;;56.00;;
32152;SDS011;18656;50.580;11.392;2024-03-06T04:28:54;108.25;;;55.45;;
32152;SDS011;18656;50.580;11.392;2024-03-06T04:31:21;115.82;;;56.55;;
32152;SDS011;18656;50.580;11.392;2024-03-06T04:33:49;112.50;;;56.75;;
32152;SDS011;18656;50.580;11.392;2024-03-06T04:36:16;116.30;;;56.22;;
32152;SDS011;18656;50.580;11.392;2024-03-06T04:38:44;106.57;;;55.47;;
32152;SDS011;18656;50.580;11.392;2024-03-06T04:41:11;117.90;;;57.15;;
32152;SDS011;18656;50.580;11.392;2024-03-06T04:43:39;113.90;;;58.67;;
32152;SDS011;18656;50.580;11.392;2024-03-06T04:46:11;114.18;;;56.90;;
32152;SDS011;18656;50.580;11.392;2024-03-06T04:48:40;108.10;;;55.58;;
32152;SDS011;18656;50.580;11.392;2024-03-06T04:51:07;113.85;;;57.00;;
32152;SDS011;18656;50.580;11.392;2024-03-06T04:53:36;114.95;;;57.08;;
32152;SDS011;18656;50.580;11.392;2024-03-06T04:56:03;110.05;;;56.75;;
32152;SDS011;18656;50.580;11.392;2024-03-06T04:58:32;113.25;;;57.03;;
32152;SDS011;18656;50.580;11.392;2024-03-06T05:00:59;105.95;;;54.20;;
32152;SDS011;18656;50.580;11.392;2024-03-06T05:03:27;107.45;;;54.17;;
32152;SDS011;18656;50.580;11.392;2024-03-06T05:06:11;115.03;;;57.45;;
32152;SDS011;18656;50.580;11.392;2024-03-06T05:08:56;111.07;;;54.97;;
32152;SDS011;18656;50.580;11.392;2024-03-06T05:11:40;107.47;;;53.78;;
32152;SDS011;18656;50.580;11.392;2024-03-06T05:14:25;117.55;;;56.47;;
32152;SDS011;18656;50.580;11.392;2024-03-06T05:17:09;113.70;;;57.22;;
32152;SDS011;18656;50.580;11.392;2024-03-06T05:19:54;122.45;;;55.80;;
32152;SDS011;18656;50.580;11.392;2024-03-06T05:22:39;121.57;;;57.42;;
32152;SDS011;18656;50.580;11.392;2024-03-06T05:25:23;113.15;;;57.30;;
32152;SDS011;18656;50.580;11.392;2024-03-06T05:28:08;105.18;;;55.28;;
32152;SDS011;18656;50.580;11.392;2024-03-06T05:30:53;100.30;;;54.90;;
32152;SDS011;18656;50.580;11.392;2024-03-06T05:33:37;109.28;;;55.60;;
32152;SDS011;18656;50.580;11.392;2024-03-06T05:36:22;104.13;;;53.55;;
32152;SDS011;18656;50.580;11.392;2024-03-06T05:39:06;109.90;;;53.08;;
32152;SDS011;18656;50.580;11.392;2024-03-06T05:41:59;108.90;;;55.88;;
32152;SDS011;18656;50.580;11.392;2024-03-06T05:44:45;113.60;;;57.15;;
32152;SDS011;18656;50.580;11.392;2024-03-06T05:47:33;106.57;;;55.72;;
32152;SDS011;18656;50.580;11.392;2024-03-06T05:50:17;117.55;;;56.78;;
32152;SDS011;18656;50.580;11.392;2024-03-06T05:53:02;115.03;;;58.90;;
32152;SDS011;18656;50.580;11.392;2024-03-06T05:55:47;118.55;;;58.25;;
32152;SDS011;18656;50.580;11.392;2024-03-06T05:58:31;113.97;;;57.08;;
32152;SDS011;18656;50.580;11.392;2024-03-06T06:01:01;112.85;;;57.90;;
32152;SDS011;18656;50.580;11.392;2024-03-06T06:03:30;101.60;;;53.90;;
32152;SDS011;18656;50.580;11.392;2024-03-06T06:05:57;115.10;;;57.40;;
32152;SDS011;18656;50.580;11.392;2024-03-06T06:08:25;119.43;;;58.03;;
32152;SDS011;18656;50.580;11.392;2024-03-06T06:10:53;113.10;;;57.35;;
32152;SDS011;18656;50.580;11.392;2024-03-06T06:13:21;106.22;;;57.03;;
32152;SDS011;18656;50.580;11.392;2024-03-06T06:15:48;116.65;;;57.42;;
32152;SDS011;18656;50.580;11.392;2024-03-06T06:18:16;110.75;;;57.75;;
32152;SDS011;18656;50.580;11.392;2024-03-06T06:20:44;110.18;;;56.25;;
32152;SDS011;18656;50.580;11.392;2024-03-06T06:23:11;103.78;;;54.92;;
32152;SDS011;18656;50.580;11.392;2024-03-06T06:25:39;111.43;;;56.78;;
32152;SDS011;18656;50.580;11.392;2024-03-06T06:28:07;110.45;;;55.75;;
32152;SDS011;18656;50.580;11.392;2024-03-06T06:30:36;110.38;;;56.50;;
32152;SDS011;18656;50.580;11.392;2024-03-06T06:33:04;102.18;;;54.00;;
32152;SDS011;18656;50.580;11.392;2024-03-06T06:35:32;109.70;;;56.47;;
32152;SDS011;18656;50.580;11.392;2024-03-06T06:38:00;129.30;;;70.82;;
32152;SDS011;18656;50.580;11.392;2024-03-06T06:40:28;110.07;;;60.80;;
32152;SDS011;18656;50.580;11.392;2024-03-06T06:42:56;112.78;;;62.45;;
32152;SDS011;18656;50.580;11.392;2024-03-06T06:45:23;101.75;;;55.92;;
32152;SDS011;18656;50.580;11.392;2024-03-06T06:47:51;105.20;;;55.47;;
32152;SDS011;18656;50.580;11.392;2024-03-06T06:50:18;97.88;;;53.00;;
32152;SDS011;18656;50.580;11.392;2024-03-06T06:52:49;101.78;;;54.72;;
32152;SDS011;18656;50.580;11.392;2024-03-06T06:55:17;98.80;;;52.05;;
32152;SDS011;18656;50.580;11.392;2024-03-06T06:57:44;99.35;;;53.78;;
32152;SDS011;18656;50.580;11.392;2024-03-06T07:00:11;99.47;;;51.85;;
32152;SDS011;18656;50.580;11.392;2024-03-06T07:02:42;95.43;;;52.67;;
32152;SDS011;18656;50.580;11.392;2024-03-06T07:05:09;91.47;;;50.55;;
32152;SDS011;18656;50.580;11.392;2024-03-06T07:07:37;88.63;;;50.05;;
32152;SDS011;18656;50.580;11.392;2024-03-06T07:10:05;96.00;;;51.03;;
32152;SDS011;18656;50.580;11.392;2024-03-06T07:12:32;86.75;;;47.80;;
32152;SDS011;18656;50.580;11.392;2024-03-06T07:15:00;87.90;;;49.97;;
32152;SDS011;18656;50.580;11.392;2024-03-06T07:17:28;89.20;;;50.65;;
32152;SDS011;18656;50.580;11.392;2024-03-06T07:19:56;87.15;;;49.80;;
32152;SDS011;18656;50.580;11.392;2024-03-06T07:22:24;95.10;;;50.35;;
32152;SDS011;18656;50.580;11.392;2024-03-06T07:24:52;87.82;;;48.40;;
32152;SDS011;18656;50.580;11.392;2024-03-06T07:27:19;85.80;;;49.63;;
32152;SDS011;18656;50.580;11.392;2024-03-06T07:29:47;87.65;;;48.70;;
32152;SDS011;18656;50.580;11.392;2024-03-06T07:32:14;78.97;;;45.88;;
32152;SDS011;18656;50.580;11.392;2024-03-06T07:34:41;86.07;;;48.65;;
32152;SDS011;18656;50.580;11.392;2024-03-06T07:37:09;80.18;;;46.38;;
32152;SDS011;18656;50.580;11.392;2024-03-06T07:39:36;88.10;;;47.55;;
32152;SDS011;18656;50.580;11.392;2024-03-06T07:42:05;80.72;;;47.50;;
32152;SDS011;18656;50.580;11.392;2024-03-06T07:44:32;74.60;;;44.85;;
32152;SDS011;18656;50.580;11.392;2024-03-06T07:47:02;68.50;;;42.05;;
32152;SDS011;18656;50.580;11.392;2024-03-06T07:49:30;73.63;;;43.92;;
32152;SDS011;18656;50.580;11.392;2024-03-06T07:51:57;75.22;;;44.88;;
32152;SDS011;18656;50.580;11.392;2024-03-06T07:54:25;75.95;;;44.72;;
32152;SDS011;18656;50.580;11.392;2024-03-06T07:56:52;68.95;;;42.20;;
32152;SDS011;18656;50.580;11.392;2024-03-06T07:59:21;67.18;;;41.97;;
32152;SDS011;18656;50.580;11.392;2024-03-06T08:01:49;74.15;;;44.38;;
32152;SDS011;18656;50.580;11.392;2024-03-06T08:04:16;75.85;;;43.78;;
32152;SDS011;18656;50.580;11.392;2024-03-06T08:06:44;72.95;;;42.25;;
32152;SDS011;18656;50.580;11.392;2024-03-06T08:09:12;70.70;;;42.65;;
32152;SDS011;18656;50.580;11.392;2024-03-06T08:11:40;71.80;;;43.75;;
32152;SDS011;18656;50.580;11.392;2024-03-06T08:14:07;76.90;;;43.47;;
32152;SDS011;18656;50.580;11.392;2024-03-06T08:16:35;76.00;;;42.88;;
32152;SDS011;18656;50.580;11.392;2024-03-06T08:19:03;72.53;;;42.53;;
32152;SDS011;18656;50.580;11.392;2024-03-06T08:21:31;73.00;;;43.97;;
32152;SDS011;18656;50.580;11.392;2024-03-06T08:23:58;76.95;;;43.35;;
32152;SDS011;18656;50.580;11.392;2024-03-06T08:26:25;73.63;;;41.90;;
32152;SDS011;18656;50.580;11.392;2024-03-06T08:28:53;69.78;;;41.65;;
32152;SDS011;18656;50.580;11.392;2024-03-06T08:31:20;77.80;;;43.72;;
32152;SDS011;18656;50.580;11.392;2024-03-06T08:33:48;65.03;;;41.75;;
32152;SDS011;18656;50.580;11.392;2024-03-06T08:36:16;64.93;;;40.17;;
32152;SDS011;18656;50.580;11.392;2024-03-06T08:38:43;65.90;;;40.08;;
32152;SDS011;18656;50.580;11.392;2024-03-06T08:41:11;63.67;;;39.95;;
32152;SDS011;18656;50.580;11.392;2024-03-06T08:43:38;65.57;;;39.35;;
32152;SDS011;18656;50.580;11.392;2024-03-06T08:46:06;59.97;;;37.95;;
32152;SDS011;18656;50.580;11.392;2024-03-06T08:48:34;62.65;;;38.20;;
32152;SDS011;18656;50.580;11.392;2024-03-06T08:51:02;59.88;;;36.95;;
32152;SDS011;18656;50.580;11.392;2024-03-06T08:53:31;60.47;;;39.30;;
32152;SDS011;18656;50.580;11.392;2024-03-06T08:55:59;63.50;;;38.70;;
32152;SDS011;18656;50.580;11.392;2024-03-06T08:58:26;63.33;;;36.85;;
32152;SDS011;18656;50.580;11.392;2024-03-06T09:00:53;58.97;;;36.83;;
32152;SDS011;18656;50.580;11.392;2024-03-06T09:03:21;61.03;;;36.42;;
32152;SDS011;18656;50.580;11.392;2024-03-06T09:05:49;55.83;;;34.63;;
32152;SDS011;18656;50.580;11.392;2024-03-06T09:08:17;56.30;;;36.35;;
32152;SDS011;18656;50.580;11.392;2024-03-06T09:10:45;56.15;;;34.92;;
32152;SDS011;18656;50.580;11.392;2024-03-06T09:13:12;66.28;;;38.00;;
32152;SDS011;18656;50.580;11.392;2024-03-06T09:15:40;65.75;;;38.13;;
32152;SDS011;18656;50.580;11.392;2024-03-06T09:18:07;63.95;;;37.30;;
32152;SDS011;18656;50.580;11.392;2024-03-06T09:20:34;61.90;;;37.60;;
32152;SDS011;18656;50.580;11.392;2024-03-06T09:23:02;61.17;;;36.10;;
32152;SDS011;18656;50.580;11.392;2024-03-06T09:25:29;62.38;;;38.08;;
32152;SDS011;18656;50.580;11.392;2024-03-06T09:27:57;61.95;;;37.58;;
32152;SDS011;18656;50.580;11.392;2024-03-06T09:30:26;63.38;;;37.97;;
32152;SDS011;18656;50.580;11.392;2024-03-06T09:32:54;58.03;;;36.67;;
32152;SDS011;18656;50.580;11.392;2024-03-06T09:35:22;65.90;;;38.25;;
32152;SDS011;18656;50.580;11.392;2024-03-06T09:37:49;63.83;;;36.55;;
32152;SDS011;18656;50.580;11.392;2024-03-06T09:40:20;61.75;;;36.20;;
32152;SDS011;18656;50.580;11.392;2024-03-06T09:42:49;59.65;;;36.63;;
32152;SDS011;18656;50.580;11.392;2024-03-06T09:45:17;58.92;;;36.15;;
32152;SDS011;18656;50.580;11.392;2024-03-06T09:47:46;63.17;;;36.33;;
32152;SDS011;18656;50.580;11.392;2024-03-06T09:50:15;58.38;;;36.63;;
32152;SDS011;18656;50.580;11.392;2024-03-06T09:52:49;59.15;;;35.58;;
32152;SDS011;18656;50.580;11.392;2024-03-06T09:55:18;56.80;;;34.13;;
32152;SDS011;18656;50.580;11.392;2024-03-06T09:57:46;53.67;;;34.20;;
32152;SDS011;18656;50.580;11.392;2024-03-06T10:00:14;56.72;;;33.15;;
32152;SDS011;18656;50.580;11.392;2024-03-06T10:02:47;53.28;;;31.10;;
32152;SDS011;18656;50.580;11.392;2024-03-06T10:05:22;52.45;;;30.40;;
32152;SDS011;18656;50.580;11.392;2024-03-06T10:07:50;52.75;;;30.48;;
32152;SDS011;18656;50.580;11.392;2024-03-06T10:10:21;51.35;;;29.98;;
32152;SDS011;18656;50.580;11.392;2024-03-06T10:12:53;52.85;;;31.48;;
32152;SDS011;18656;50.580;11.392;2024-03-06T10:15:21;51.22;;;29.65;;
32152;SDS011;18656;50.580;11.392;2024-03-06T10:17:48;54.83;;;31.83;;
32152;SDS011;18656;50.580;11.392;2024-03-06T10:20:23;53.10;;;31.27;;
32152;SDS011;18656;50.580;11.392;2024-03-06T10:22:51;50.28;;;29.65;;
32152;SDS011;18656;50.580;11.392;2024-03-06T10:30:50;49.03;;;28.48;;
32152;SDS011;18656;50.580;11.392;2024-03-06T10:33:18;45.08;;;26.20;;
32152;SDS011;18656;50.580;11.392;2024-03-06T10:35:46;44.17;;;27.42;;
32152;SDS011;18656;50.580;11.392;2024-03-06T10:38:20;44.38;;;27.50;;
32152;SDS011;18656;50.580;11.392;2024-03-06T10:40:48;45.55;;;27.05;;
32152;SDS011;18656;50.580;11.392;2024-03-06T10:43:19;40.20;;;26.45;;
32152;SDS011;18656;50.580;11.392;2024-03-06T10:45:48;42.63;;;26.23;;
32152;SDS011;18656;50.580;11.392;2024-03-06T10:48:17;45.53;;;27.50;;
32152;SDS011;18656;50.580;11.392;2024-03-06T10:50:46;39.90;;;27.20;;
32152;SDS011;18656;50.580;11.392;2024-03-06T10:53:14;43.95;;;27.33;;
32152;SDS011;18656;50.580;11.392;2024-03-06T10:55:48;46.85;;;28.20;;
32152;SDS011;18656;50.580;11.392;2024-03-06T10:58:16;44.00;;;28.13;;
32152;SDS011;18656;50.580;11.392;2024-03-06T11:00:46;40.65;;;27.63;;
32152;SDS011;18656;50.580;11.392;2024-03-06T11:03:14;40.65;;;26.92;;
32152;SDS011;18656;50.580;11.392;2024-03-06T11:05:42;44.45;;;28.83;;
32152;SDS011;18656;50.580;11.392;2024-03-06T11:08:12;48.85;;;29.77;;
32152;SDS011;18656;50.580;11.392;2024-03-06T11:10:40;43.75;;;28.80;;
32152;SDS011;18656;50.580;11.392;2024-03-06T11:15:47;45.42;;;30.17;;
32152;SDS011;18656;50.580;11.392;2024-03-06T11:23:31;42.40;;;27.70;;
32152;SDS011;18656;50.580;11.392;2024-03-06T11:26:00;38.47;;;26.08;;
32152;SDS011;18656;50.580;11.392;2024-03-06T11:28:29;41.33;;;27.15;;
32152;SDS011;18656;50.580;11.392;2024-03-06T11:30:58;41.30;;;27.17;;
32152;SDS011;18656;50.580;11.392;2024-03-06T11:33:44;44.92;;;28.73;;
32152;SDS011;18656;50.580;11.392;2024-03-06T11:36:19;43.22;;;27.88;;
32152;SDS011;18656;50.580;11.392;2024-03-06T11:38:48;44.90;;;27.00;;
32152;SDS011;18656;50.580;11.392;2024-03-06T11:41:20;43.72;;;26.83;;
32152;SDS011;18656;50.580;11.392;2024-03-06T11:43:51;43.72;;;25.73;;
32152;SDS011;18656;50.580;11.392;2024-03-06T11:46:19;48.60;;;32.95;;
32152;SDS011;18656;50.580;11.392;2024-03-06T11:48:54;38.03;;;25.27;;
32152;SDS011;18656;50.580;11.392;2024-03-06T11:51:22;37.45;;;25.73;;
32152;SDS011;18656;50.580;11.392;2024-03-06T11:53:50;39.55;;;26.20;;
32152;SDS011;18656;50.580;11.392;2024-03-06T11:56:21;79.20;;;42.15;;
32152;SDS011;18656;50.580;11.392;2024-03-06T11:58:48;38.45;;;25.77;;
32152;SDS011;18656;50.580;11.392;2024-03-06T12:01:15;37.05;;;25.98;;
32152;SDS011;18656;50.580;11.392;2024-03-06T12:03:45;44.92;;;28.60;;
32152;SDS011;18656;50.580;11.392;2024-03-06T12:06:14;42.35;;;25.85;;
32152;SDS011;18656;50.580;11.392;2024-03-06T12:08:43;39.17;;;25.33;;
32152;SDS011;18656;50.580;11.392;2024-03-06T12:11:10;42.67;;;24.88;;
32152;SDS011;18656;50.580;11.392;2024-03-06T12:13:38;33.75;;;24.67;;
32152;SDS011;18656;50.580;11.392;2024-03-06T12:16:06;32.28;;;21.98;;
32152;SDS011;18656;50.580;11.392;2024-03-06T12:18:33;30.95;;;21.88;;
32152;SDS011;18656;50.580;11.392;2024-03-06T12:21:01;91.75;;;67.63;;
32152;SDS011;18656;50.580;11.392;2024-03-06T12:23:29;38.03;;;25.65;;
32152;SDS011;18656;50.580;11.392;2024-03-06T12:26:06;30.33;;;22.45;;
32152;SDS011;18656;50.580;11.392;2024-03-06T12:28:36;34.50;;;22.85;;
32152;SDS011;18656;50.580;11.392;2024-03-06T12:31:04;34.67;;;21.63;;
32152;SDS011;18656;50.580;11.392;2024-03-06T12:33:32;37.40;;;23.80;;
32152;SDS011;18656;50.580;11.392;2024-03-06T12:36:04;30.17;;;20.88;;
32152;SDS011;18656;50.580;11.392;2024-03-06T12:38:32;33.08;;;20.88;;
32152;SDS011;18656;50.580;11.392;2024-03-06T12:41:00;29.35;;;19.23;;
32152;SDS011;18656;50.580;11.392;2024-03-06T12:43:27;31.20;;;21.45;;
32152;SDS011;18656;50.580;11.392;2024-03-06T12:45:55;30.40;;;20.73;;
32152;SDS011;18656;50.580;11.392;2024-03-06T12:48:25;38.58;;;24.60;;
32152;SDS011;18656;50.580;11.392;2024-03-06T12:50:54;38.85;;;23.52;;
32152;SDS011;18656;50.580;11.392;2024-03-06T12:53:22;40.28;;;24.10;;
32152;SDS011;18656;50.580;11.392;2024-03-06T12:55:50;33.95;;;22.75;;
32152;SDS011;18656;50.580;11.392;2024-03-06T12:58:17;35.22;;;23.70;;
32152;SDS011;18656;50.580;11.392;2024-03-06T13:00:44;35.90;;;23.88;;
32152;SDS011;18656;50.580;11.392;2024-03-06T13:03:11;29.88;;;20.90;;
32152;SDS011;18656;50.580;11.392;2024-03-06T13:05:38;28.88;;;20.70;;
32152;SDS011;18656;50.580;11.392;2024-03-06T13:08:06;31.50;;;19.55;;
32152;SDS011;18656;50.580;11.392;2024-03-06T13:10:34;29.10;;;18.80;;
32152;SDS011;18656;50.580;11.392;2024-03-06T13:13:01;25.02;;;17.85;;
32152;SDS011;18656;50.580;11.392;2024-03-06T13:15:29;23.02;;;16.98;;
32152;SDS011;18656;50.580;11.392;2024-03-06T13:17:56;27.17;;;17.75;;
32152;SDS011;18656;50.580;11.392;2024-03-06T13:20:24;28.63;;;17.98;;
32152;SDS011;18656;50.580;11.392;2024-03-06T13:22:51;25.42;;;17.05;;
32152;SDS011;18656;50.580;11.392;2024-03-06T13:25:18;24.85;;;17.40;;
32152;SDS011;18656;50.580;11.392;2024-03-06T13:27:45;26.45;;;17.55;;
32152;SDS011;18656;50.580;11.392;2024-03-06T13:30:13;31.42;;;18.52;;
32152;SDS011;18656;50.580;11.392;2024-03-06T13:32:41;28.60;;;18.73;;
32152;SDS011;18656;50.580;11.392;2024-03-06T13:35:09;27.88;;;16.98;;
32152;SDS011;18656;50.580;11.392;2024-03-06T13:37:39;30.85;;;18.13;;
32152;SDS011;18656;50.580;11.392;2024-03-06T13:40:07;34.17;;;19.05;;
32152;SDS011;18656;50.580;11.392;2024-03-06T13:42:40;35.65;;;20.75;;
32152;SDS011;18656;50.580;11.392;2024-03-06T13:45:07;31.98;;;19.67;;
32152;SDS011;18656;50.580;11.392;2024-03-06T13:47:38;26.52;;;17.90;;
32152;SDS011;18656;50.580;11.392;2024-03-06T13:50:07;31.02;;;18.45;;
32152;SDS011;18656;50.580;11.392;2024-03-06T13:52:35;28.08;;;18.05;;
32152;SDS011;18656;50.580;11.392;2024-03-06T13:55:02;26.35;;;18.00;;
32152;SDS011;18656;50.580;11.392;2024-03-06T13:57:33;26.45;;;17.33;;
32152;SDS011;18656;50.580;11.392;2024-03-06T14:00:04;27.85;;;17.92;;
32152;SDS011;18656;50.580;11.392;2024-03-06T14:02:32;26.80;;;16.98;;
32152;SDS011;18656;50.580;11.392;2024-03-06T14:04:59;24.98;;;17.40;;
32152;SDS011;18656;50.580;11.392;2024-03-06T14:07:26;35.42;;;22.38;;
32152;SDS011;18656;50.580;11.392;2024-03-06T14:09:54;30.70;;;20.65;;
32152;SDS011;18656;50.580;11.392;2024-03-06T14:12:23;38.42;;;22.52;;
32152;SDS011;18656;50.580;11.392;2024-03-06T14:14:53;32.90;;;21.90;;
32152;SDS011;18656;50.580;11.392;2024-03-06T14:17:21;43.35;;;27.33;;
32152;SDS011;18656;50.580;11.392;2024-03-06T14:19:48;42.20;;;28.95;;
32152;SDS011;18656;50.580;11.392;2024-03-06T14:22:16;27.08;;;18.45;;
32152;SDS011;18656;50.580;11.392;2024-03-06T14:24:43;22.17;;;16.48;;
32152;SDS011;18656;50.580;11.392;2024-03-06T14:27:11;42.80;;;28.88;;